createdAt,value
2022-07-31T00:04:43.730Z,17.30
2022-07-31T00:07:24.396Z,17.20
2022-07-31T00:09:54.317Z,17.00
2022-07-31T00:12:34.942Z,16.80
2022-07-31T00:18:34.050Z,17.90
2022-07-31T00:21:02.879Z,16.90
2022-07-31T00:23:35.009Z,16.70
2022-07-31T00:26:09.366Z,17.00
2022-07-31T00:28:38.199Z,18.00
2022-07-31T00:31:28.482Z,16.70
2022-07-31T00:33:56.872Z,16.70
2022-07-31T00:36:33.000Z,16.60
2022-07-31T00:42:45.475Z,16.40
2022-07-31T00:49:03.387Z,16.40
2022-07-31T00:55:29.908Z,16.40
2022-07-31T00:58:34.458Z,16.30
2022-07-31T01:01:23.094Z,16.20
2022-07-31T01:03:52.656Z,16.20
2022-07-31T01:06:27.111Z,16.10
2022-07-31T01:09:11.597Z,16.20
2022-07-31T01:12:00.899Z,16.10
2022-07-31T01:18:31.748Z,16.10
2022-07-31T01:25:02.799Z,16.00
2022-07-31T01:28:01.300Z,16.00
2022-07-31T01:34:27.310Z,15.90
2022-07-31T01:40:46.425Z,15.90
2022-07-31T01:50:59.516Z,15.90
2022-07-31T01:53:36.277Z,15.90
2022-07-31T01:56:10.370Z,17.40
2022-07-31T01:58:42.720Z,15.80
2022-07-31T02:04:59.502Z,15.60
2022-07-31T02:10:58.667Z,15.50
2022-07-31T02:14:09.364Z,15.50
2022-07-31T02:16:39.116Z,15.40
2022-07-31T02:19:27.331Z,15.30
2022-07-31T02:22:44.555Z,15.30
2022-07-31T02:26:11.675Z,16.10
2022-07-31T02:29:37.217Z,15.20
2022-07-31T02:32:08.838Z,15.10
2022-07-31T02:38:28.664Z,15.10
2022-07-31T02:44:44.902Z,15.10
2022-07-31T02:47:16.591Z,15.10
2022-07-31T02:50:20.171Z,18.20
2022-07-31T02:52:49.575Z,15.00
2022-07-31T02:56:04.613Z,14.90
2022-07-31T02:58:33.401Z,14.90
2022-07-31T03:04:54.587Z,14.90
2022-07-31T03:08:25.319Z,14.80
2022-07-31T03:10:54.077Z,14.80
2022-07-31T03:13:32.179Z,14.80
2022-07-31T03:16:12.352Z,14.70
2022-07-31T03:18:51.801Z,14.70
2022-07-31T03:29:38.914Z,14.70
2022-07-31T03:32:21.916Z,14.70
2022-07-31T03:38:51.583Z,14.60
2022-07-31T03:41:44.792Z,14.60
2022-07-31T03:45:12.008Z,14.60
2022-07-31T03:51:29.794Z,14.60
2022-07-31T03:54:15.378Z,14.60
2022-07-31T03:56:52.820Z,14.60
2022-07-31T04:00:16.418Z,14.60
2022-07-31T04:02:45.761Z,14.60
2022-07-31T04:05:21.723Z,14.50
2022-07-31T04:08:03.954Z,15.50
2022-07-31T04:10:45.584Z,14.60
2022-07-31T04:13:56.722Z,16.60
2022-07-31T04:20:13.895Z,14.70
2022-07-31T04:26:26.628Z,14.70
2022-07-31T04:32:36.239Z,14.70
2022-07-31T04:35:06.837Z,14.80
2022-07-31T04:41:04.962Z,14.80
2022-07-31T04:43:53.494Z,14.90
2022-07-31T04:50:11.584Z,14.80
2022-07-31T04:56:25.964Z,15.00
2022-07-31T04:59:16.664Z,15.20
2022-07-31T05:01:51.008Z,15.30
2022-07-31T05:04:57.661Z,15.40
2022-07-31T05:07:57.662Z,15.60
2022-07-31T05:14:43.633Z,15.80
2022-07-31T05:20:59.518Z,16.20
2022-07-31T05:24:33.199Z,16.40
2022-07-31T05:27:09.910Z,16.60
2022-07-31T05:29:41.216Z,16.80
2022-07-31T05:32:27.475Z,16.90
2022-07-31T05:38:43.938Z,17.10
2022-07-31T05:45:03.869Z,17.20
2022-07-31T05:48:10.085Z,17.30
2022-07-31T06:04:22.082Z,17.80
2022-07-31T06:06:57.779Z,17.90
2022-07-31T06:09:40.266Z,18.00
2022-07-31T06:12:14.729Z,18.20
2022-07-31T06:14:57.292Z,18.20
2022-07-31T06:34:43.842Z,19.00
2022-07-31T06:53:01.657Z,19.40
2022-07-31T06:55:44.463Z,20.60
2022-07-31T06:58:39.760Z,22.80
2022-07-31T07:05:06.235Z,20.00
2022-07-31T07:07:56.176Z,23.00
2022-07-31T07:16:03.562Z,23.90
2022-07-31T07:36:28.219Z,20.70
2022-07-31T07:39:16.559Z,22.60
2022-07-31T07:41:59.246Z,23.20
2022-07-31T07:47:12.562Z,21.00
2022-07-31T07:50:08.386Z,24.30
2022-07-31T07:52:59.530Z,21.70
2022-07-31T07:55:47.330Z,23.10
2022-07-31T08:01:43.204Z,22.50
2022-07-31T08:05:26.593Z,24.20
2022-07-31T08:11:45.066Z,23.10
2022-07-31T08:17:55.259Z,23.50
2022-07-31T08:24:14.334Z,23.80
2022-07-31T08:30:37.933Z,24.20
2022-07-31T08:38:02.745Z,24.50
2022-07-31T08:39:55.446Z,24.70
2022-07-31T08:46:30.483Z,23.80
2022-07-31T08:52:44.131Z,24.60
2022-07-31T08:55:24.756Z,24.50
2022-07-31T08:59:11.813Z,24.80
2022-07-31T09:14:01.451Z,24.80
2022-07-31T09:20:24.862Z,24.90
2022-07-31T09:26:48.036Z,21.90
2022-07-31T09:33:26.818Z,23.90
2022-07-31T09:36:06.841Z,26.20
2022-07-31T09:38:46.129Z,25.40
2022-07-31T09:41:58.207Z,27.60
2022-07-31T09:51:40.278Z,25.70
2022-07-31T09:54:09.873Z,25.40
2022-07-31T09:56:38.418Z,28.20
2022-07-31T10:00:06.615Z,22.80
2022-07-31T10:02:36.644Z,25.20
2022-07-31T10:05:05.960Z,25.40
2022-07-31T10:22:06.086Z,26.40
2022-07-31T10:24:45.568Z,26.30
2022-07-31T10:27:16.300Z,29.20
2022-07-31T10:36:48.415Z,26.10
2022-07-31T10:39:25.232Z,27.20
2022-07-31T10:52:40.554Z,27.40
2022-07-31T10:55:22.754Z,27.60
2022-07-31T10:58:30.393Z,27.50
2022-07-31T11:08:39.214Z,28.50
2022-07-31T11:19:44.441Z,28.90
2022-07-31T11:22:32.034Z,28.60
2022-07-31T11:25:17.360Z,28.30
2022-07-31T11:28:19.378Z,29.10
2022-07-31T11:31:16.241Z,28.80
2022-07-31T11:33:46.567Z,30.80
2022-07-31T11:36:51.312Z,30.00
2022-07-31T11:43:27.468Z,31.50
2022-07-31T11:45:58.593Z,29.30
2022-07-31T11:48:39.958Z,31.90
2022-07-31T11:51:09.527Z,31.50
2022-07-31T11:54:27.190Z,29.90
2022-07-31T11:57:51.169Z,28.90
2022-07-31T12:01:23.638Z,27.90
2022-07-31T12:04:38.922Z,28.80
2022-07-31T12:07:19.019Z,29.90
2022-07-31T12:10:01.510Z,30.50
2022-07-31T12:12:32.248Z,30.10
2022-07-31T12:15:24.717Z,27.70
2022-07-31T12:22:14.948Z,29.10
2022-07-31T12:24:47.768Z,29.10
2022-07-31T12:27:33.830Z,30.50
2022-07-31T12:30:18.714Z,30.60
2022-07-31T12:36:45.742Z,29.10
2022-07-31T12:40:00.579Z,30.60
2022-07-31T12:46:19.166Z,29.40
2022-07-31T12:49:05.272Z,29.20
2022-07-31T12:55:42.250Z,29.20
2022-07-31T12:58:16.319Z,29.40
2022-07-31T13:00:46.728Z,29.60
2022-07-31T13:03:21.409Z,31.00
2022-07-31T13:05:52.217Z,31.50
2022-07-31T13:08:30.654Z,31.10
2022-07-31T13:11:05.359Z,31.30
2022-07-31T13:13:51.555Z,30.90
2022-07-31T13:16:21.629Z,31.70
2022-07-31T13:18:51.679Z,31.60
2022-07-31T13:21:28.065Z,30.40
2022-07-31T13:24:22.704Z,29.40
2022-07-31T13:31:02.012Z,29.80
2022-07-31T13:37:24.281Z,30.90
2022-07-31T13:50:33.381Z,30.60
2022-07-31T13:53:01.788Z,30.60
2022-07-31T13:55:30.803Z,30.90
2022-07-31T13:58:03.902Z,31.30
2022-07-31T14:00:33.818Z,31.30
2022-07-31T14:03:02.499Z,33.70
2022-07-31T14:05:40.240Z,30.90
2022-07-31T14:08:32.661Z,32.30
2022-07-31T14:14:50.951Z,29.30
2022-07-31T14:21:56.111Z,31.40
2022-07-31T14:24:37.035Z,31.80
2022-07-31T14:27:09.980Z,31.80
2022-07-31T14:30:10.259Z,31.80
2022-07-31T14:44:04.793Z,31.40
2022-07-31T14:57:01.243Z,31.40
2022-07-31T14:59:43.499Z,31.80
2022-07-31T15:09:21.866Z,30.20
2022-07-31T15:11:59.660Z,31.30
2022-07-31T15:14:29.744Z,34.00
2022-07-31T15:16:59.987Z,31.90
2022-07-31T15:19:28.291Z,28.40
2022-07-31T15:25:46.410Z,31.40
2022-07-31T15:28:18.218Z,30.90
2022-07-31T15:31:00.743Z,30.90
2022-07-31T15:33:33.540Z,31.20
2022-07-31T15:36:04.641Z,31.50
2022-07-31T15:38:35.159Z,31.60
2022-07-31T15:44:51.909Z,29.80
2022-07-31T15:47:23.166Z,33.00
2022-07-31T15:49:56.264Z,31.20
2022-07-31T15:56:19.622Z,29.00
2022-07-31T15:58:55.115Z,31.00
2022-07-31T16:01:23.746Z,30.70
2022-07-31T16:03:58.743Z,32.70
2022-07-31T16:06:48.929Z,31.10
2022-07-31T16:10:04.187Z,29.90
2022-07-31T16:12:53.457Z,30.00
2022-07-31T16:15:22.660Z,32.80
2022-07-31T16:17:55.502Z,32.30
2022-07-31T16:20:34.641Z,31.50
2022-07-31T16:23:06.385Z,31.20
2022-07-31T16:28:41.795Z,28.20
2022-07-31T16:31:11.723Z,29.60
2022-07-31T16:33:59.922Z,30.40
2022-07-31T16:36:51.660Z,30.50
2022-07-31T16:39:23.703Z,29.10
2022-07-31T16:41:55.037Z,30.40
2022-07-31T16:44:26.808Z,31.30
2022-07-31T16:46:59.908Z,30.40
2022-07-31T16:49:36.918Z,30.10
2022-07-31T16:52:09.876Z,28.90
2022-07-31T16:54:41.544Z,29.20
2022-07-31T17:11:34.990Z,27.10
2022-07-31T17:17:58.318Z,28.30
2022-07-31T17:20:26.550Z,30.30
2022-07-31T17:22:56.503Z,28.70
2022-07-31T17:25:28.913Z,28.70
2022-07-31T17:30:30.674Z,28.70
2022-07-31T17:32:59.201Z,28.70
2022-07-31T17:35:28.388Z,28.60
2022-07-31T17:56:23.293Z,27.40
2022-07-31T17:59:04.107Z,25.80
2022-07-31T18:01:33.704Z,29.00
2022-07-31T18:04:11.268Z,30.20
2022-07-31T18:06:45.460Z,30.90
2022-07-31T18:09:21.391Z,27.70
2022-07-31T18:11:52.590Z,29.70
2022-07-31T18:14:24.244Z,27.70
2022-07-31T18:16:54.406Z,29.20
2022-07-31T18:19:34.273Z,28.70
2022-07-31T18:22:08.909Z,29.20
2022-07-31T18:24:38.059Z,29.50
2022-07-31T18:27:07.952Z,30.30
2022-07-31T18:29:40.149Z,29.60
2022-07-31T18:32:10.449Z,27.50
2022-07-31T18:37:29.294Z,29.30
2022-07-31T18:39:59.891Z,27.40
2022-07-31T18:47:01.313Z,27.40
2022-07-31T19:18:43.402Z,26.00
2022-07-31T19:21:41.574Z,26.80
2022-07-31T19:24:53.977Z,24.90
2022-07-31T19:31:13.093Z,23.00
2022-07-31T19:34:12.675Z,28.20
2022-07-31T19:36:59.206Z,24.40
2022-07-31T19:39:43.636Z,24.20
2022-07-31T19:42:14.714Z,27.70
2022-07-31T19:45:28.825Z,27.80
2022-07-31T19:47:59.324Z,23.20
2022-07-31T19:50:31.071Z,23.70
2022-07-31T19:53:01.590Z,23.70
2022-07-31T19:55:30.840Z,23.60
2022-07-31T19:58:09.663Z,23.60
2022-07-31T20:00:51.688Z,23.40
2022-07-31T20:03:21.304Z,23.30
2022-07-31T20:05:56.834Z,24.60
2022-07-31T20:08:27.111Z,27.00
2022-07-31T20:11:03.447Z,23.10
2022-07-31T20:30:05.567Z,21.60
2022-07-31T20:32:37.442Z,24.30
2022-07-31T20:35:35.279Z,23.80
2022-07-31T21:02:57.190Z,21.70
2022-07-31T21:09:23.858Z,21.30
2022-07-31T21:26:58.124Z,20.40
2022-07-31T21:37:04.666Z,17.90
2022-07-31T21:39:35.461Z,20.50
2022-07-31T21:42:07.056Z,20.60
2022-07-31T21:44:40.136Z,20.50
2022-07-31T21:47:15.433Z,20.40
2022-07-31T21:53:33.998Z,20.70
2022-07-31T21:56:05.786Z,23.60
2022-07-31T21:58:36.010Z,20.10
2022-07-31T22:05:06.197Z,18.60
2022-07-31T22:11:28.507Z,20.30
2022-07-31T22:27:21.564Z,20.80
2022-07-31T22:29:52.339Z,20.40
2022-07-31T22:32:20.568Z,24.40
2022-07-31T22:34:48.923Z,21.70
2022-07-31T22:37:23.021Z,20.50
2022-07-31T22:39:53.956Z,20.60
2022-07-31T22:46:17.469Z,18.40
2022-07-31T22:55:28.091Z,19.10
2022-07-31T22:57:58.102Z,23.70
2022-07-31T23:00:40.308Z,20.50
2022-07-31T23:03:11.090Z,20.50
2022-07-31T23:06:03.071Z,20.30
2022-07-31T23:08:29.766Z,20.30
2022-07-31T23:15:16.465Z,20.30
2022-07-31T23:17:52.019Z,20.50
2022-07-31T23:28:10.941Z,16.90
2022-07-31T23:31:39.112Z,17.50
2022-07-31T23:34:07.553Z,19.90
2022-07-31T23:36:35.868Z,19.50
2022-07-31T23:39:10.834Z,19.50
2022-07-31T23:41:56.388Z,19.40
2022-07-31T23:47:44.553Z,18.50
2022-07-31T23:50:13.751Z,21.40
2022-07-31T23:52:42.265Z,22.90
2022-07-31T23:59:09.863Z,20.60
